Portada
METAR-TAF:

METAR-TAF

Aeroports :

Aktau, Kazakhstan

latitud: 43-52-12N, longitud: 051-06E, altitud: 22 m

Observació

L'informe es va fer fa 10 minuts, a les 19:00 UTC
Vent calma
Temperatura 27°C
Humitat 45%
Pressió 1003 hPa
Visibilitat 10 km o més
sense núvols per sota de 1500 mi sense presència de cumulonimbus.

METAR: UATE 161900Z 00000MPS CAVOK 27/14 Q1003 R30/0///70 NOSIG RMK QFE750/1001

Hora: 00:10 (19:10 UTC)

Pronòstic

L'informe es va fer fa 1 hora i 57 minuts, a les 17:13 UTC
Pronòstic vàlid del 16 a les 18 UTC al 17 a les 18 UTC
Vent 10 kt del Nord
Visibilitat 10 km o més
Núvols disperses a una alçada de 5000 ft, Cumulonimbus.
Evolucionant progressivament
l' 17 a les 06 UTC al 17 a les 08 UTC
Vent 10 kt del Oest/Nord-Oest amb ràfegues de 19 kt

TAF: UATE 161713Z 1618/1718 36005MPS 9999 SCT050CB TX35/1709Z TN21/1701Z BECMG 1706/1708 29005G10MPS

Observacions i pronòstics meteorològics de més de 4000 aeroports (METAR i TAF).

Les estacions disponibles són els punts grocs i vermells al mapa.

Posi el ratolí al punt desitjat per veure el nom de l'estació.

Feu clic per veure les observacions i els pronòstics meteorològics.

Per canviar el mapa: feu clic els botons verds amb una creu de color negre per apropar; al botó verd amb un guió per allunyar la imatge; o en les fletxes verdes per a mapes adjacents.


METAR-TAF: